Time;durP1;ratioP1;P1;durP2;ratioP2;P2;SDS_P1;SDS_P2;PMS_P1;PMS_P2;Temp;Humidity;BMP_temperature;BMP_pressure;BME280_temperature;BME280_humidity;BME280_pressure;Samples;Min_cycle;Max_cycle;Signal;HPM_P1;HPM_P2
2023/05/21 00:01:41;;;;;;;5.33;2.00;;;15.20;99.90;;;;;;5012259;28;20049;-65
2023/05/21 00:04:07;;;;;;;12.20;2.08;;;15.20;99.90;;;;;;4997980;28;20444;-66
2023/05/21 00:06:36;;;;;;;7.03;2.17;;;15.20;99.90;;;;;;4997212;28;20461;-66
2023/05/21 00:09:04;;;;;;;5.88;2.55;;;15.20;99.90;;;;;;4997787;28;20448;-66
2023/05/21 00:11:30;;;;;;;4.18;2.10;;;15.20;99.90;;;;;;4989631;28;20570;-65
2023/05/21 00:13:56;;;;;;;3.63;2.20;;;15.20;99.90;;;;;;4979468;28;20094;-66
2023/05/21 00:16:23;;;;;;;2.63;2.20;;;15.20;99.90;;;;;;4983128;28;20174;-81
2023/05/21 00:18:48;;;;;;;3.63;2.20;;;15.20;99.90;;;;;;4995614;28;20386;-66
2023/05/21 00:21:16;;;;;;;4.80;2.10;;;15.20;99.90;;;;;;4995733;28;20097;-66
2023/05/21 00:23:46;;;;;;;7.95;2.28;;;15.20;99.90;;;;;;4997101;28;20058;-65
2023/05/21 00:26:12;;;;;;;2.85;2.10;;;15.20;99.90;;;;;;4995222;28;20030;-66
2023/05/21 00:28:38;;;;;;;4.33;2.47;;;15.20;99.90;;;;;;4994240;28;20326;-66
2023/05/21 00:31:05;;;;;;;3.30;2.00;;;15.20;99.90;;;;;;4997614;28;20256;-65
2023/05/21 00:33:30;;;;;;;10.38;2.00;;;15.20;99.90;;;;;;4995935;28;20030;-67
2023/05/21 00:35:56;;;;;;;8.07;2.50;;;15.20;99.90;;;;;;4995796;28;20580;-66
2023/05/21 00:38:22;;;;;;;3.37;2.37;;;15.20;99.90;;;;;;4995181;28;20049;-66
2023/05/21 00:40:49;;;;;;;4.97;2.45;;;15.20;99.90;;;;;;4995278;28;20033;-68
2023/05/21 00:43:15;;;;;;;4.20;2.00;;;15.20;99.90;;;;;;4991459;28;20049;-66
2023/05/21 00:45:46;;;;;;;6.27;2.47;;;15.20;99.90;;;;;;5016680;28;20031;-66
2023/05/21 00:48:13;;;;;;;4.68;2.40;;;15.10;99.90;;;;;;4993157;28;20034;-65
2023/05/21 00:50:40;;;;;;;4.03;2.45;;;15.10;99.90;;;;;;4995663;28;20034;-66
2023/05/21 00:53:09;;;;;;;5.03;2.50;;;15.00;99.90;;;;;;4995436;28;20109;-66
2023/05/21 00:55:38;;;;;;;3.80;2.28;;;15.10;99.90;;;;;;4996457;28;20026;-66
2023/05/21 00:58:04;;;;;;;4.43;2.47;;;15.10;99.90;;;;;;4995246;28;20034;-66
2023/05/21 01:00:33;;;;;;;4.47;2.40;;;15.10;99.90;;;;;;4995874;28;20050;-66
2023/05/21 01:03:00;;;;;;;5.50;2.45;;;15.10;99.90;;;;;;4989589;28;20088;-81
2023/05/21 01:05:29;;;;;;;3.78;2.53;;;15.10;99.90;;;;;;4990454;28;20034;-67
2023/05/21 01:07:57;;;;;;;5.85;2.60;;;15.10;99.90;;;;;;4991503;28;20034;-66
2023/05/21 01:10:24;;;;;;;3.63;2.70;;;15.10;99.90;;;;;;4989762;28;20019;-66
2023/05/21 01:12:51;;;;;;;4.22;2.97;;;15.10;99.90;;;;;;4989078;28;20089;-80
2023/05/21 01:15:17;;;;;;;8.63;3.00;;;15.10;99.90;;;;;;4990849;28;20034;-66
2023/05/21 01:17:47;;;;;;;4.33;3.13;;;15.10;99.90;;;;;;4991618;28;20045;-66
2023/05/21 01:20:17;;;;;;;5.10;2.85;;;15.10;99.90;;;;;;5008447;28;20118;-66
2023/05/21 01:22:58;;;;;;;5.28;2.95;;;15.10;99.90;;;;;;4989141;28;20030;-66
2023/05/21 01:25:24;;;;;;;9.70;3.03;;;15.20;99.90;;;;;;4989542;28;20026;-66
2023/05/21 01:27:50;;;;;;;5.88;2.83;;;15.20;99.90;;;;;;4985767;28;20621;-81
2023/05/21 01:30:18;;;;;;;;;;;15.20;99.90;;;;;;4994976;28;20627;-65
2023/05/21 01:33:01;;;;;;;4.13;2.90;;;15.20;99.90;;;;;;4991622;28;19916;-65
2023/05/21 01:35:37;;;;;;;5.97;2.70;;;15.10;99.90;;;;;;4985966;28;20046;-66
2023/05/21 01:38:21;;;;;;;;;;;15.20;99.90;;;;;;4983638;28;20041;-66
2023/05/21 01:41:04;;;;;;;5.53;3.05;;;15.20;99.90;;;;;;4990543;28;20302;-66
2023/05/21 01:43:42;;;;;;;4.50;2.85;;;15.20;99.90;;;;;;4988072;28;20057;-66
2023/05/21 01:46:11;;;;;;;7.35;3.28;;;15.20;99.90;;;;;;4984708;28;20027;-65
2023/05/21 01:48:38;;;;;;;5.05;3.03;;;15.20;99.90;;;;;;4983693;28;20118;-66
2023/05/21 01:51:05;;;;;;;5.45;3.00;;;15.20;99.90;;;;;;4990302;28;20033;-65
2023/05/21 01:53:31;;;;;;;4.20;2.65;;;15.20;99.90;;;;;;4991935;28;20037;-78
2023/05/21 01:55:58;;;;;;;5.93;2.97;;;15.10;99.90;;;;;;4992648;28;20038;-66
2023/05/21 01:58:24;;;;;;;8.13;2.80;;;15.10;99.90;;;;;;5003462;28;20413;-66
2023/05/21 02:00:52;;;;;;;5.25;2.92;;;15.10;99.90;;;;;;4996204;28;20041;-65
2023/05/21 02:03:20;;;;;;;8.10;3.58;;;15.10;99.90;;;;;;4990944;28;20450;-66
2023/05/21 02:05:46;;;;;;;4.60;3.00;;;15.10;99.90;;;;;;4987482;28;20083;-65
2023/05/21 02:08:13;;;;;;;4.90;3.10;;;15.00;99.90;;;;;;4987715;28;20030;-66
2023/05/21 02:10:39;;;;;;;5.53;2.63;;;15.10;99.90;;;;;;4999756;28;20286;-65
2023/05/21 02:13:05;;;;;;;4.87;3.00;;;15.10;99.90;;;;;;4999941;28;20042;-66
2023/05/21 02:15:33;;;;;;;7.17;2.90;;;15.10;99.90;;;;;;4995765;28;20038;-66
2023/05/21 02:17:59;;;;;;;7.25;2.97;;;15.10;99.90;;;;;;4994302;28;20026;-70
2023/05/21 02:20:25;;;;;;;4.75;2.95;;;15.00;99.90;;;;;;4999253;28;20033;-67
2023/05/21 02:22:50;;;;;;;4.23;2.93;;;15.00;99.90;;;;;;4999371;28;20041;-66
2023/05/21 02:25:18;;;;;;;4.73;3.13;;;15.00;99.90;;;;;;4998070;28;20084;-66
2023/05/21 02:27:45;;;;;;;5.88;3.13;;;15.00;99.90;;;;;;4997745;28;20073;-66
2023/05/21 02:30:13;;;;;;;13.02;3.20;;;15.00;99.90;;;;;;4997991;28;20444;-66
2023/05/21 02:32:41;;;;;;;5.47;2.95;;;15.00;99.90;;;;;;4989391;28;20022;-80
2023/05/21 02:35:08;;;;;;;6.18;3.28;;;15.00;99.90;;;;;;4992442;28;20027;-66
2023/05/21 02:37:34;;;;;;;5.88;3.42;;;15.00;99.90;;;;;;4990918;28;20406;-66
2023/05/21 02:40:02;;;;;;;4.93;3.55;;;15.00;99.90;;;;;;4983983;28;20054;-67
2023/05/21 02:42:29;;;;;;;6.97;3.35;;;15.00;99.90;;;;;;4991962;28;20034;-66
2023/05/21 02:44:55;;;;;;;6.88;3.30;;;15.00;99.90;;;;;;4990983;28;20034;-66
2023/05/21 02:47:22;;;;;;;6.43;3.50;;;14.90;99.90;;;;;;4994689;28;20034;-65
2023/05/21 02:49:49;;;;;;;5.15;3.08;;;14.90;99.90;;;;;;4991324;28;20041;-66
2023/05/21 02:52:17;;;;;;;7.60;3.10;;;14.90;99.90;;;;;;4986605;28;20438;-66
2023/05/21 02:54:43;;;;;;;7.10;3.58;;;14.90;99.90;;;;;;4991479;28;20080;-66
2023/05/21 02:57:09;;;;;;;7.22;3.17;;;14.90;99.90;;;;;;4991427;28;20484;-82
2023/05/21 02:59:35;;;;;;;4.73;3.20;;;14.90;99.90;;;;;;4995211;28;20125;-66
2023/05/21 03:02:00;;;;;;;4.60;3.47;;;14.90;99.90;;;;;;4989767;28;20041;-66
2023/05/21 03:04:27;;;;;;;5.23;3.37;;;14.80;99.90;;;;;;4980667;28;20322;-66
2023/05/21 03:06:53;;;;;;;4.50;3.10;;;14.80;99.90;;;;;;4992752;28;20034;-84
2023/05/21 03:09:22;;;;;;;4.32;2.97;;;14.90;99.90;;;;;;4993152;28;20121;-66
2023/05/21 03:11:49;;;;;;;5.95;3.38;;;14.80;99.90;;;;;;4997344;28;20030;-66
2023/05/21 03:14:15;;;;;;;8.20;3.55;;;14.90;99.90;;;;;;4991202;28;20023;-66
2023/05/21 03:16:42;;;;;;;5.93;3.78;;;14.90;99.90;;;;;;5012136;28;20421;-66
2023/05/21 03:19:08;;;;;;;6.88;3.25;;;14.90;99.90;;;;;;4997093;28;20034;-66
2023/05/21 03:21:35;;;;;;;4.18;3.25;;;14.90;99.90;;;;;;4993479;28;20026;-66
2023/05/21 03:24:01;;;;;;;7.95;3.70;;;14.90;99.90;;;;;;4997688;28;20065;-81
2023/05/21 03:26:28;;;;;;;4.18;2.85;;;14.90;99.90;;;;;;4989203;28;20378;-66
2023/05/21 03:28:55;;;;;;;6.13;2.75;;;14.90;99.90;;;;;;4991420;28;20042;-66
2023/05/21 03:31:25;;;;;;;;;;;14.90;99.90;;;;;;4994076;28;20018;-66
2023/05/21 03:33:51;;;;;;;5.30;3.05;;;14.90;99.90;;;;;;4997943;28;19910;-66
2023/05/21 03:36:17;;;;;;;4.88;3.30;;;14.90;99.90;;;;;;4991674;28;20406;-66
2023/05/21 03:38:43;;;;;;;5.43;2.77;;;14.90;99.90;;;;;;4997924;28;20040;-66
2023/05/21 03:41:10;;;;;;;4.87;3.30;;;14.80;99.90;;;;;;4997042;28;20038;-66
2023/05/21 03:43:35;;;;;;;9.20;3.90;;;14.80;99.90;;;;;;4997478;28;20035;-66
2023/05/21 03:46:03;;;;;;;4.73;2.93;;;14.80;99.90;;;;;;4994521;28;20034;-66
2023/05/21 03:48:29;;;;;;;7.22;3.10;;;14.80;99.90;;;;;;4999220;28;20359;-65
2023/05/21 03:50:55;;;;;;;6.90;3.00;;;14.80;99.90;;;;;;5005659;28;20073;-66
2023/05/21 03:53:21;;;;;;;5.47;3.37;;;14.80;99.90;;;;;;5006244;28;20151;-66
2023/05/21 03:55:53;;;;;;;3.80;2.90;;;14.80;99.90;;;;;;4997627;28;20037;-66
2023/05/21 03:58:21;;;;;;;6.38;3.30;;;14.70;99.90;;;;;;5011011;28;20160;-66
2023/05/21 04:00:47;;;;;;;5.38;3.05;;;14.80;99.90;;;;;;5005160;28;20105;-65
2023/05/21 04:03:13;;;;;;;4.00;2.70;;;14.70;99.90;;;;;;5009082;28;20036;-66
2023/05/21 04:05:41;;;;;;;4.90;3.38;;;14.80;99.90;;;;;;5003849;28;20023;-66
2023/05/21 04:08:07;;;;;;;6.63;3.42;;;14.80;99.90;;;;;;5002544;28;20026;-66
2023/05/21 04:10:33;;;;;;;5.53;3.37;;;14.80;99.90;;;;;;5012391;28;20018;-66
2023/05/21 04:12:59;;;;;;;4.55;3.13;;;14.80;99.90;;;;;;5007581;28;20034;-66
2023/05/21 04:15:24;;;;;;;4.67;3.20;;;14.80;99.90;;;;;;4999705;28;20046;-66
2023/05/21 04:17:51;;;;;;;6.13;3.47;;;14.90;99.90;;;;;;4996935;28;20042;-66
2023/05/21 04:20:17;;;;;;;7.32;3.38;;;14.80;99.90;;;;;;5004973;28;20022;-66
2023/05/21 04:22:43;;;;;;;5.60;3.70;;;14.80;99.90;;;;;;4994804;28;20034;-66
2023/05/21 04:25:09;;;;;;;4.68;3.47;;;14.90;99.90;;;;;;5004018;28;20034;-66
2023/05/21 04:27:35;;;;;;;6.13;3.87;;;14.80;99.90;;;;;;5003673;28;20026;-66
2023/05/21 04:30:03;;;;;;;6.45;3.53;;;14.70;99.90;;;;;;4998682;28;20065;-66
2023/05/21 04:32:33;;;;;;;6.97;3.28;;;14.80;99.90;;;;;;5005578;28;20057;-66
2023/05/21 04:35:00;;;;;;;7.07;3.75;;;14.80;99.90;;;;;;4998525;28;20026;-66
2023/05/21 04:37:30;;;;;;;5.85;3.65;;;14.80;99.90;;;;;;5000061;28;20026;-66
2023/05/21 04:39:57;;;;;;;9.98;3.90;;;14.80;99.90;;;;;;5000069;28;20430;-68
2023/05/21 04:42:25;;;;;;;;;;;14.80;99.90;;;;;;4991467;28;20027;-66
2023/05/21 04:44:51;;;;;;;7.38;3.97;;;14.80;99.90;;;;;;4990007;28;20004;-65
2023/05/21 04:47:17;;;;;;;6.87;4.07;;;14.90;99.90;;;;;;4991230;28;20110;-66
2023/05/21 04:49:43;;;;;;;9.60;3.97;;;14.90;99.90;;;;;;4988595;28;20361;-66
2023/05/21 04:52:10;;;;;;;6.25;4.18;;;14.90;99.90;;;;;;4992846;28;20037;-66
2023/05/21 04:54:37;;;;;;;10.65;3.92;;;14.80;99.90;;;;;;4994288;28;20509;-67
2023/05/21 04:57:05;;;;;;;5.78;4.38;;;14.90;99.90;;;;;;4990435;28;20422;-67
2023/05/21 04:59:31;;;;;;;10.55;4.60;;;14.90;99.90;;;;;;4994056;28;21429;-67
2023/05/21 05:01:56;;;;;;;5.57;3.73;;;14.90;99.90;;;;;;4991502;28;20026;-66
2023/05/21 05:04:22;;;;;;;6.53;4.00;;;14.90;99.90;;;;;;4997460;28;20123;-65
2023/05/21 05:06:49;;;;;;;8.80;3.80;;;14.80;99.90;;;;;;4992882;28;20026;-66
2023/05/21 05:09:14;;;;;;;5.70;3.83;;;14.90;99.90;;;;;;4984682;28;20121;-66
2023/05/21 05:11:40;;;;;;;7.53;4.53;;;14.90;99.90;;;;;;4991016;28;20090;-66
2023/05/21 05:14:06;;;;;;;7.07;4.20;;;14.90;99.90;;;;;;4987595;28;20101;-66
2023/05/21 05:16:32;;;;;;;6.60;4.57;;;14.90;99.90;;;;;;4988997;28;20104;-66
2023/05/21 05:18:58;;;;;;;7.45;3.95;;;14.90;99.90;;;;;;4984891;28;20049;-66
2023/05/21 05:21:24;;;;;;;8.23;4.50;;;14.90;99.90;;;;;;4991480;28;20433;-66
2023/05/21 05:23:50;;;;;;;9.30;4.47;;;14.90;99.90;;;;;;4993719;28;20400;-66
2023/05/21 05:26:16;;;;;;;7.03;4.20;;;14.90;99.90;;;;;;4993088;28;20421;-64
2023/05/21 05:28:41;;;;;;;9.57;4.37;;;14.90;99.90;;;;;;4986364;28;20031;-67
2023/05/21 05:31:08;;;;;;;8.73;4.37;;;14.90;99.90;;;;;;5002769;28;20086;-66
2023/05/21 05:33:33;;;;;;;6.80;4.30;;;14.80;99.90;;;;;;4981762;28;20034;-67
2023/05/21 05:35:59;;;;;;;7.43;4.97;;;14.90;99.90;;;;;;4988171;28;20033;-66
2023/05/21 05:38:25;;;;;;;7.47;4.50;;;14.90;99.90;;;;;;4994227;28;20053;-66
2023/05/21 05:40:51;;;;;;;7.18;4.40;;;15.00;99.90;;;;;;4990130;28;20027;-66
2023/05/21 05:43:17;;;;;;;11.03;5.20;;;14.90;99.90;;;;;;4997975;28;20336;-66
2023/05/21 05:45:43;;;;;;;7.83;4.70;;;14.90;99.90;;;;;;5000949;28;20026;-68
2023/05/21 05:48:08;;;;;;;8.37;4.40;;;14.90;99.90;;;;;;4987558;28;20037;-66
2023/05/21 05:50:34;;;;;;;9.43;4.70;;;14.90;99.90;;;;;;4985155;28;20059;-66
2023/05/21 05:53:00;;;;;;;9.07;4.70;;;14.90;99.90;;;;;;4989133;28;20053;-66
2023/05/21 05:55:26;;;;;;;11.83;4.67;;;14.90;99.90;;;;;;4989712;28;20026;-66
2023/05/21 05:57:52;;;;;;;7.67;4.00;;;14.90;99.90;;;;;;4985080;28;20038;-67
2023/05/21 06:00:18;;;;;;;8.30;4.50;;;14.90;99.90;;;;;;4984542;28;20023;-66
2023/05/21 06:02:44;;;;;;;11.77;4.90;;;14.90;99.90;;;;;;4993115;28;20365;-66
2023/05/21 06:05:10;;;;;;;8.53;5.47;;;14.90;99.90;;;;;;4999943;28;20033;-65
2023/05/21 06:07:37;;;;;;;8.80;4.43;;;14.90;99.90;;;;;;5008084;28;20030;-65
2023/05/21 06:10:07;;;;;;;7.88;4.55;;;15.00;99.90;;;;;;5001464;28;20409;-65
2023/05/21 06:12:33;;;;;;;8.13;4.70;;;15.00;99.90;;;;;;5001707;28;20054;-65
2023/05/21 06:14:59;;;;;;;6.47;4.43;;;15.00;99.90;;;;;;4983092;28;20043;-67
2023/05/21 06:17:25;;;;;;;7.47;4.43;;;15.00;99.90;;;;;;4999161;28;20027;-66
2023/05/21 06:19:50;;;;;;;10.00;5.40;;;15.00;99.90;;;;;;4998062;28;20054;-66
2023/05/21 06:22:16;;;;;;;11.10;5.37;;;15.10;99.90;;;;;;5005895;28;20030;-66
2023/05/21 06:24:42;;;;;;;6.53;4.67;;;15.10;99.90;;;;;;4994929;28;20432;-66
2023/05/21 06:27:08;;;;;;;8.40;4.93;;;15.10;99.90;;;;;;5002853;28;20050;-65
2023/05/21 06:29:35;;;;;;;7.68;4.13;;;15.10;99.90;;;;;;4996393;28;20152;-66
2023/05/21 06:32:00;;;;;;;8.30;4.50;;;15.00;99.90;;;;;;5005443;28;20457;-66
2023/05/21 06:34:29;;;;;;;8.70;5.37;;;15.00;99.90;;;;;;5001548;28;20409;-66
2023/05/21 06:36:55;;;;;;;7.63;4.78;;;15.10;99.90;;;;;;4995604;28;20037;-65
2023/05/21 06:39:21;;;;;;;10.20;5.50;;;15.00;99.90;;;;;;5000157;28;20022;-65
2023/05/21 06:41:47;;;;;;;7.70;4.77;;;15.10;99.90;;;;;;4998671;28;20030;-65
2023/05/21 06:44:13;;;;;;;9.60;5.07;;;15.00;99.90;;;;;;5002511;28;20039;-66
2023/05/21 06:46:39;;;;;;;9.75;5.32;;;15.10;99.90;;;;;;5014723;28;20088;-67
2023/05/21 06:49:05;;;;;;;8.43;4.80;;;15.10;99.90;;;;;;4993668;28;20038;-66
2023/05/21 06:51:32;;;;;;;7.63;5.38;;;15.20;99.90;;;;;;4996266;28;20365;-66
2023/05/21 06:53:57;;;;;;;7.07;4.15;;;15.20;99.90;;;;;;5005333;28;20026;-65
2023/05/21 06:56:23;;;;;;;11.40;5.47;;;15.20;99.90;;;;;;5001246;28;20034;-66
2023/05/21 06:58:49;;;;;;;13.90;5.77;;;15.30;99.90;;;;;;5000009;28;20045;-67
2023/05/21 07:01:15;;;;;;;8.80;5.23;;;15.40;99.90;;;;;;5000164;28;20377;-65
2023/05/21 07:03:41;;;;;;;8.17;4.40;;;15.50;99.90;;;;;;5003008;28;20117;-65
2023/05/21 07:06:06;;;;;;;7.67;4.90;;;15.50;99.90;;;;;;4998595;28;20117;-66
2023/05/21 07:08:32;;;;;;;10.60;4.88;;;15.60;99.90;;;;;;5001000;28;20087;-65
2023/05/21 07:10:58;;;;;;;10.00;5.67;;;15.70;99.90;;;;;;4994912;28;20322;-66
2023/05/21 07:13:24;;;;;;;9.90;5.57;;;15.70;99.90;;;;;;4988670;28;20038;-65
2023/05/21 07:15:49;;;;;;;10.53;4.90;;;15.70;99.90;;;;;;5002654;28;20506;-67
2023/05/21 07:18:15;;;;;;;13.30;5.30;;;15.80;99.90;;;;;;5008835;28;20030;-66
2023/05/21 07:20:41;;;;;;;8.87;4.97;;;15.80;99.90;;;;;;4995076;28;20033;-66
2023/05/21 07:23:07;;;;;;;7.17;5.33;;;15.80;99.90;;;;;;4982292;28;20054;-67
2023/05/21 07:25:33;;;;;;;10.20;6.07;;;15.90;99.90;;;;;;4997486;28;20041;-66
2023/05/21 07:27:58;;;;;;;10.85;5.75;;;16.10;99.90;;;;;;5010546;28;20362;-68
2023/05/21 07:30:24;;;;;;;8.90;4.77;;;16.20;99.90;;;;;;5004878;28;20153;-67
2023/05/21 07:32:50;;;;;;;11.87;6.17;;;16.20;99.90;;;;;;4999536;28;20038;-67
2023/05/21 07:35:16;;;;;;;10.63;5.73;;;16.20;99.90;;;;;;4993147;28;20040;-68
2023/05/21 07:37:41;;;;;;;9.97;5.77;;;16.20;99.90;;;;;;4996634;28;20033;-67
2023/05/21 07:40:08;;;;;;;10.20;5.90;;;16.30;99.90;;;;;;4995909;28;20102;-67
2023/05/21 07:42:33;;;;;;;14.68;6.45;;;16.40;99.90;;;;;;5007248;28;20366;-67
2023/05/21 07:44:59;;;;;;;15.07;6.30;;;16.50;99.90;;;;;;5011049;28;20022;-67
2023/05/21 07:47:25;;;;;;;11.83;6.30;;;16.60;99.90;;;;;;5009145;28;20322;-67
2023/05/21 07:49:51;;;;;;;8.13;5.43;;;16.70;99.90;;;;;;4997681;28;20435;-67
2023/05/21 07:52:16;;;;;;;10.63;5.67;;;16.60;99.90;;;;;;5004512;28;20034;-69
2023/05/21 07:54:42;;;;;;;10.77;5.87;;;16.60;99.90;;;;;;4999578;28;20452;-67
2023/05/21 07:57:08;;;;;;;13.47;6.17;;;16.50;99.90;;;;;;5009972;28;20060;-68
2023/05/21 07:59:33;;;;;;;7.90;4.77;;;16.40;99.90;;;;;;5020726;28;20985;-66
2023/05/21 08:01:59;;;;;;;10.73;5.83;;;16.40;99.90;;;;;;4999354;28;20113;-68
2023/05/21 08:04:25;;;;;;;9.37;4.57;;;16.40;99.90;;;;;;5003463;28;20030;-66
2023/05/21 08:06:52;;;;;;;11.38;5.38;;;16.30;99.90;;;;;;5006450;28;20022;-68
2023/05/21 08:09:18;;;;;;;9.70;5.57;;;16.20;99.90;;;;;;5008758;28;20050;-68
2023/05/21 08:11:44;;;;;;;11.50;5.60;;;16.20;99.90;;;;;;5007118;28;20060;-65
2023/05/21 08:14:10;;;;;;;9.45;5.70;;;16.10;99.90;;;;;;5010079;28;20036;-66
2023/05/21 08:16:36;;;;;;;11.53;5.37;;;16.10;99.90;;;;;;4995445;28;20711;-67
2023/05/21 08:19:02;;;;;;;9.03;5.40;;;16.10;99.90;;;;;;4998163;28;20033;-67
2023/05/21 08:21:28;;;;;;;12.63;5.97;;;16.10;99.90;;;;;;4999476;28;20033;-65
2023/05/21 08:23:53;;;;;;;13.87;5.43;;;16.10;99.90;;;;;;5000735;28;20053;-67
2023/05/21 08:26:20;;;;;;;7.90;4.90;;;16.10;99.90;;;;;;5010232;28;20061;-67
2023/05/21 08:28:46;;;;;;;10.07;5.97;;;16.10;99.90;;;;;;5005592;28;20057;-67
2023/05/21 08:31:11;;;;;;;5.97;4.20;;;16.10;99.90;;;;;;4990587;28;20061;-68
2023/05/21 08:33:37;;;;;;;11.73;5.80;;;16.10;99.90;;;;;;4983734;28;20022;-68
2023/05/21 08:36:06;;;;;;;10.00;5.63;;;16.10;99.90;;;;;;4979761;28;20027;-66
2023/05/21 08:38:32;;;;;;;7.20;3.45;;;16.20;99.90;;;;;;4982543;28;20362;-67
2023/05/21 08:40:59;;;;;;;12.82;5.53;;;16.20;99.90;;;;;;4985227;28;20014;-66
2023/05/21 08:43:28;;;;;;;17.10;5.60;;;16.30;99.90;;;;;;4984819;28;20039;-71
2023/05/21 08:45:56;;;;;;;14.77;6.00;;;16.40;99.90;;;;;;4980412;28;20084;-67
2023/05/21 08:48:22;;;;;;;20.20;6.30;;;16.50;99.90;;;;;;4985654;28;20031;-67
2023/05/21 08:50:53;;;;;;;12.77;5.18;;;16.60;99.90;;;;;;4989536;28;20022;-66
2023/05/21 08:53:19;;;;;;;9.70;5.45;;;16.50;99.90;;;;;;5011098;28;20424;-67
2023/05/21 08:55:49;;;;;;;9.10;5.78;;;16.40;99.90;;;;;;5004575;28;20034;-66
2023/05/21 08:58:15;;;;;;;9.73;4.38;;;16.60;99.90;;;;;;4997339;28;20580;-66
2023/05/21 09:00:40;;;;;;;12.43;6.03;;;16.80;99.90;;;;;;5006344;28;20034;-67
2023/05/21 09:03:09;;;;;;;6.60;2.90;;;16.90;99.90;;;;;;5000805;28;20362;-67
2023/05/21 09:05:37;;;;;;;7.55;4.13;;;17.10;99.90;;;;;;5002821;28;20035;-66
2023/05/21 09:08:12;;;;;;;6.80;4.00;;;17.20;99.90;;;;;;4995534;28;20025;-66
2023/05/21 09:10:41;;;;;;;4.82;2.55;;;17.00;99.90;;;;;;4986291;28;20426;-68
2023/05/21 09:13:08;;;;;;;7.82;4.50;;;16.90;99.90;;;;;;5009214;28;20030;-68
2023/05/21 09:15:34;;;;;;;7.35;4.85;;;16.80;99.90;;;;;;4995547;28;20050;-68
2023/05/21 09:18:00;;;;;;;6.43;2.93;;;16.80;99.90;;;;;;4991978;28;20030;-67
2023/05/21 09:20:27;;;;;;;10.70;4.73;;;16.90;99.90;;;;;;4996660;28;20101;-68
2023/05/21 09:22:54;;;;;;;11.38;5.30;;;16.80;99.90;;;;;;4996793;28;20034;-66
2023/05/21 09:25:26;;;;;;;8.63;4.80;;;16.80;99.90;;;;;;4994895;28;20038;-67
2023/05/21 09:27:54;;;;;;;11.18;4.57;;;16.80;99.90;;;;;;4996374;28;20038;-69
2023/05/21 09:30:20;;;;;;;9.80;5.22;;;16.80;99.90;;;;;;4996605;28;20105;-68
2023/05/21 09:32:55;;;;;;;10.37;5.33;;;16.80;99.90;;;;;;4995623;28;20359;-67
2023/05/21 09:35:20;;;;;;;9.45;4.32;;;16.80;99.90;;;;;;5006916;28;20033;-67
2023/05/21 09:37:48;;;;;;;9.87;3.83;;;17.00;99.90;;;;;;4989455;28;20426;-66
2023/05/21 09:40:15;;;;;;;16.00;5.18;;;16.90;99.90;;;;;;4994803;28;20524;-66
2023/05/21 09:42:44;;;;;;;11.65;5.05;;;16.90;99.90;;;;;;4985207;28;20098;-68
2023/05/21 09:45:20;;;;;;;15.93;5.93;;;17.00;99.90;;;;;;4998917;28;20058;-68
2023/05/21 09:47:48;;;;;;;9.50;4.55;;;16.80;99.90;;;;;;4981010;28;20101;-65
2023/05/21 09:50:19;;;;;;;14.80;5.45;;;17.10;99.90;;;;;;4988120;28;20097;-66
2023/05/21 09:52:45;;;;;;;13.05;5.53;;;17.20;99.90;;;;;;4976568;28;20037;-67
2023/05/21 09:55:13;;;;;;;13.52;5.55;;;17.10;99.90;;;;;;4983074;28;20022;-68
2023/05/21 09:57:46;;;;;;;7.88;4.30;;;17.20;99.90;;;;;;4986194;28;20317;-66
2023/05/21 10:00:22;;;;;;;8.63;4.68;;;17.00;99.90;;;;;;4990331;28;20026;-68
2023/05/21 10:02:51;;;;;;;11.57;5.72;;;17.10;99.90;;;;;;4984602;28;20069;-67
2023/05/21 10:05:17;;;;;;;7.43;4.82;;;17.20;99.90;;;;;;4976540;28;20055;-68
2023/05/21 10:07:52;;;;;;;13.80;5.60;;;17.30;99.90;;;;;;4981065;28;20057;-66
2023/05/21 10:10:21;;;;;;;13.15;5.45;;;17.20;99.90;;;;;;4996386;28;20026;-68
2023/05/21 10:12:53;;;;;;;18.05;5.38;;;17.40;99.90;;;;;;4981750;28;20031;-67
2023/05/21 10:15:23;;;;;;;11.77;6.07;;;17.50;99.90;;;;;;4979080;28;20039;-67
2023/05/21 10:17:48;;;;;;;9.70;3.50;;;17.50;99.90;;;;;;4991778;28;20018;-68
2023/05/21 10:20:15;;;;;;;9.70;4.30;;;17.50;99.90;;;;;;5002729;28;20276;-69
2023/05/21 10:22:41;;;;;;;5.47;3.72;;;17.20;99.90;;;;;;4997046;28;20039;-66
2023/05/21 10:25:08;;;;;;;9.63;6.10;;;17.10;99.90;;;;;;4995302;28;20031;-67
2023/05/21 10:27:38;;;;;;;6.85;3.60;;;17.00;99.90;;;;;;5006685;28;20188;-67
2023/05/21 10:30:07;;;;;;;10.45;5.03;;;17.20;99.90;;;;;;4998602;28;20045;-67
2023/05/21 10:32:33;;;;;;;14.40;5.65;;;17.20;99.90;;;;;;4983503;28;20037;-67
2023/05/21 10:35:01;;;;;;;9.27;5.25;;;17.30;99.90;;;;;;4981850;28;20027;-68
2023/05/21 10:37:27;;;;;;;10.40;5.18;;;17.10;99.90;;;;;;4980950;28;20078;-68
2023/05/21 10:39:54;;;;;;;8.15;4.30;;;17.00;99.90;;;;;;4976670;28;20117;-68
2023/05/21 10:42:20;;;;;;;;;;;16.90;99.90;;;;;;4980117;28;20038;-66
2023/05/21 10:45:14;;;;;;;10.43;5.70;;;16.90;99.90;;;;;;4982153;28;19933;-67
2023/05/21 10:48:05;;;;;;;11.60;5.47;;;16.90;99.90;;;;;;4974843;28;20042;-69
2023/05/21 10:50:40;;;;;;;8.57;4.95;;;16.80;99.90;;;;;;5002620;28;20022;-67
2023/05/21 10:53:27;;;;;;;10.13;5.03;;;16.80;99.90;;;;;;5003783;28;20101;-67
2023/05/21 10:56:27;;;;;;;15.55;5.97;;;16.70;99.90;;;;;;4997387;28;20444;-68
2023/05/21 10:59:50;;;;;;;11.57;5.93;;;16.60;99.90;;;;;;4996980;28;20033;-67
2023/05/21 11:02:18;;;;;;;10.57;3.72;;;16.70;99.90;;;;;;4986881;28;20042;-67
2023/05/21 11:04:47;;;;;;;9.82;5.78;;;16.80;99.90;;;;;;4989101;28;20026;-69
2023/05/21 11:07:21;;;;;;;9.18;4.75;;;16.70;99.90;;;;;;4991287;28;20113;-68
2023/05/21 11:09:49;;;;;;;14.27;4.65;;;16.80;99.90;;;;;;4993224;28;20413;-68
2023/05/21 11:12:16;;;;;;;9.13;5.03;;;16.90;99.90;;;;;;4994450;28;20057;-66
2023/05/21 11:14:56;;;;;;;17.27;7.18;;;16.90;99.90;;;;;;4992003;28;20184;-68
2023/05/21 11:17:43;;;;;;;10.77;6.18;;;17.00;99.90;;;;;;4993554;28;20034;-66
2023/05/21 11:20:16;;;;;;;14.25;5.35;;;17.10;99.90;;;;;;4994594;28;20369;-67
2023/05/21 11:22:45;;;;;;;15.18;6.03;;;17.20;99.90;;;;;;4993706;28;20113;-68
2023/05/21 11:25:11;;;;;;;12.25;6.18;;;17.30;99.90;;;;;;4990930;28;20027;-67
2023/05/21 11:27:39;;;;;;;9.55;5.72;;;17.30;99.90;;;;;;4998802;28;20346;-68
2023/05/21 11:30:07;;;;;;;7.97;4.82;;;17.30;99.90;;;;;;4990738;28;20046;-67
2023/05/21 11:33:14;;;;;;;14.05;5.88;;;17.30;99.90;;;;;;4996929;28;20508;-68
2023/05/21 11:35:50;;;;;;;7.13;3.55;;;17.60;99.90;;;;;;4997761;28;20060;-67
2023/05/21 11:38:17;;;;;;;9.45;5.20;;;17.90;99.90;;;;;;5000470;28;20101;-69
2023/05/21 11:41:03;;;;;;;13.90;6.03;;;17.90;99.90;;;;;;4995400;28;20030;-67
2023/05/21 11:43:29;;;;;;;;;;;18.00;99.90;;;;;;4986756;28;20030;-67
2023/05/21 11:45:56;;;;;;;9.27;4.78;;;18.00;99.90;;;;;;4988751;28;19920;-67
2023/05/21 11:48:25;;;;;;;9.73;5.00;;;18.10;99.90;;;;;;5006470;28;20038;-69
2023/05/21 11:50:52;;;;;;;10.68;4.57;;;18.20;99.90;;;;;;5003003;28;20018;-70
2023/05/21 11:53:18;;;;;;;13.75;6.38;;;18.10;99.90;;;;;;4992184;28;20061;-67
2023/05/21 11:55:46;;;;;;;7.68;4.18;;;18.00;99.90;;;;;;4995775;28;20026;-68
2023/05/21 11:58:18;;;;;;;9.30;6.28;;;18.00;99.90;;;;;;4996980;28;20365;-73
2023/05/21 12:00:44;;;;;;;15.63;5.80;;;18.00;99.90;;;;;;5005723;28;20041;-69
2023/05/21 12:03:13;;;;;;;11.60;6.50;;;18.10;99.90;;;;;;5010497;28;20105;-66
2023/05/21 12:05:49;;;;;;;9.20;4.82;;;18.20;99.90;;;;;;5007466;28;20054;-68
2023/05/21 12:08:25;;;;;;;12.50;6.57;;;18.30;99.90;;;;;;5005620;28;20037;-70
2023/05/21 12:10:59;;;;;;;10.50;5.35;;;18.30;99.90;;;;;;5013036;28;20084;-69
2023/05/21 12:13:26;;;;;;;9.60;4.78;;;18.30;99.90;;;;;;5007101;28;20031;-68
2023/05/21 12:15:53;;;;;;;11.23;6.20;;;18.10;99.90;;;;;;5006070;28;20038;-68
2023/05/21 12:18:20;;;;;;;9.70;5.25;;;18.10;99.90;;;;;;4996219;28;20026;-68
2023/05/21 12:20:47;;;;;;;13.82;5.90;;;18.30;99.90;;;;;;5006570;28;20498;-78
2023/05/21 12:23:33;;;;;;;12.95;5.18;;;18.40;99.90;;;;;;5010746;28;20033;-77
2023/05/21 12:26:00;;;;;;;13.50;6.57;;;18.40;99.90;;;;;;5010403;28;20034;-67
2023/05/21 12:28:27;;;;;;;7.28;4.28;;;18.40;99.90;;;;;;5013901;28;20026;-69
2023/05/21 12:30:53;;;;;;;8.73;5.07;;;18.40;99.90;;;;;;5010451;28;20033;-77
2023/05/21 12:33:21;;;;;;;9.70;4.97;;;18.30;99.90;;;;;;4997515;28;20030;-68
2023/05/21 12:35:49;;;;;;;10.95;4.82;;;18.30;99.90;;;;;;5010520;28;20302;-69
2023/05/21 12:38:16;;;;;;;11.02;5.32;;;18.30;99.90;;;;;;5000785;28;20105;-69
2023/05/21 12:40:44;;;;;;;14.48;5.47;;;18.40;99.90;;;;;;5001010;28;20058;-79
2023/05/21 12:43:11;;;;;;;11.25;5.90;;;18.40;99.90;;;;;;4991263;28;20046;-82
2023/05/21 12:45:38;;;;;;;;;;;18.30;99.90;;;;;;4988855;28;20030;-70
2023/05/21 12:48:05;;;;;;;9.98;5.75;;;18.10;99.90;;;;;;4979652;28;20305;-69
2023/05/21 12:50:34;;;;;;;15.98;5.10;;;18.20;99.90;;;;;;4991512;28;20031;-77